createdAt,value
2017-09-29T00:00:46.476Z,0
2017-09-29T00:01:56.508Z,0
2017-09-29T00:03:06.538Z,0
2017-09-29T00:04:16.882Z,0
2017-09-29T00:05:27.231Z,0
2017-09-29T00:06:37.573Z,0
2017-09-29T00:07:49.058Z,0
2017-09-29T00:08:59.087Z,0
2017-09-29T00:10:09.857Z,0
2017-09-29T00:11:19.892Z,0
2017-09-29T00:12:30.257Z,0
2017-09-29T00:13:40.278Z,0
2017-09-29T00:14:50.305Z,0
2017-09-29T00:16:00.715Z,0
2017-09-29T00:17:10.729Z,0
2017-09-29T00:18:21.063Z,0
2017-09-29T00:19:31.402Z,0
2017-09-29T00:20:41.742Z,0
2017-09-29T00:21:52.174Z,0
2017-09-29T00:23:02.195Z,0
2017-09-29T00:24:12.547Z,0
2017-09-29T00:25:22.886Z,0
2017-09-29T00:26:33.223Z,0
2017-09-29T00:27:43.249Z,0
2017-09-29T00:28:53.596Z,0
2017-09-29T00:30:03.936Z,0
2017-09-29T00:31:13.783Z,0
2017-09-29T00:32:23.815Z,0
2017-09-29T00:33:33.892Z,0
2017-09-29T00:34:43.916Z,0
2017-09-29T00:35:54.259Z,0
2017-09-29T00:37:05.451Z,0
2017-09-29T00:38:15.792Z,0
2017-09-29T00:39:26.140Z,0
2017-09-29T00:40:36.197Z,0
2017-09-29T00:41:46.534Z,0
2017-09-29T00:42:56.891Z,0
2017-09-29T00:44:07.250Z,0
2017-09-29T00:45:17.330Z,0
2017-09-29T00:46:27.355Z,0
2017-09-29T00:47:37.381Z,0
2017-09-29T00:48:47.709Z,0
2017-09-29T00:49:58.057Z,0
2017-09-29T00:51:08.437Z,0
2017-09-29T00:52:18.768Z,0
2017-09-29T00:53:29.095Z,0
2017-09-29T00:54:39.428Z,0
2017-09-29T00:55:49.757Z,0
2017-09-29T00:56:59.777Z,0
2017-09-29T00:58:10.132Z,0
2017-09-29T00:59:20.149Z,0
2017-09-29T01:00:30.509Z,0
2017-09-29T01:01:40.849Z,0
2017-09-29T01:02:51.185Z,0
2017-09-29T01:04:01.524Z,0
2017-09-29T01:05:11.854Z,0
2017-09-29T01:06:21.577Z,0
2017-09-29T01:07:31.605Z,0
2017-09-29T01:08:41.945Z,0
2017-09-29T01:09:51.967Z,0
2017-09-29T01:11:01.989Z,0
2017-09-29T01:12:12.344Z,0
2017-09-29T01:13:22.691Z,0
2017-09-29T01:14:32.715Z,0
2017-09-29T01:15:42.734Z,0
2017-09-29T01:16:52.753Z,0
2017-09-29T01:18:03.091Z,0
2017-09-29T01:19:13.437Z,0
2017-09-29T01:20:23.774Z,0
2017-09-29T01:21:33.793Z,0
2017-09-29T01:22:44.164Z,0
2017-09-29T01:23:54.488Z,0
2017-09-29T01:25:04.815Z,0
2017-09-29T01:26:15.200Z,0
2017-09-29T01:27:24.907Z,0
2017-09-29T01:28:34.604Z,0
2017-09-29T01:29:44.951Z,0
2017-09-29T01:30:54.977Z,0
2017-09-29T01:32:05.367Z,0
2017-09-29T01:33:15.430Z,0
2017-09-29T01:34:25.774Z,0
2017-09-29T01:35:35.795Z,0
2017-09-29T01:36:46.144Z,0
2017-09-29T01:37:55.853Z,0
2017-09-29T01:39:06.195Z,0
2017-09-29T01:40:16.214Z,0
2017-09-29T01:41:26.249Z,0
2017-09-29T01:42:36.590Z,0
2017-09-29T01:43:46.616Z,0
2017-09-29T01:44:56.633Z,0
2017-09-29T01:46:06.982Z,0
2017-09-29T01:47:18.664Z,0
2017-09-29T01:48:29.000Z,0
2017-09-29T01:49:39.030Z,0
2017-09-29T01:50:49.372Z,0
2017-09-29T01:51:59.710Z,0
2017-09-29T01:53:10.055Z,0
2017-09-29T01:54:21.001Z,0
2017-09-29T01:55:31.101Z,0
2017-09-29T01:56:41.441Z,0
2017-09-29T01:57:51.715Z,0
2017-09-29T01:59:02.063Z,0
2017-09-29T02:00:12.406Z,0
2017-09-29T02:01:22.786Z,0
2017-09-29T02:02:33.137Z,0
2017-09-29T02:03:43.154Z,0
2017-09-29T02:04:53.197Z,0
2017-09-29T02:06:02.899Z,0
2017-09-29T02:07:13.286Z,0
2017-09-29T02:08:23.648Z,0
2017-09-29T02:09:33.980Z,0
2017-09-29T02:10:44.011Z,0
2017-09-29T02:11:54.343Z,0
2017-09-29T02:13:04.729Z,0
2017-09-29T02:14:15.062Z,0
2017-09-29T02:15:25.414Z,0
2017-09-29T02:16:35.750Z,0
2017-09-29T02:17:45.765Z,0
2017-09-29T02:18:56.095Z,0
2017-09-29T02:20:06.106Z,0
2017-09-29T02:21:16.442Z,0
2017-09-29T02:22:26.463Z,0
2017-09-29T02:23:36.482Z,0
2017-09-29T02:24:46.889Z,0
2017-09-29T02:25:57.229Z,0
2017-09-29T02:27:07.554Z,0
2017-09-29T02:28:17.916Z,0
2017-09-29T02:29:27.948Z,0
2017-09-29T02:30:38.009Z,0
2017-09-29T02:31:48.350Z,0
2017-09-29T02:32:58.377Z,0
2017-09-29T02:34:08.406Z,0
2017-09-29T02:35:18.739Z,0
2017-09-29T02:36:29.120Z,0
2017-09-29T02:37:39.148Z,0
2017-09-29T02:38:49.494Z,0
2017-09-29T02:39:59.203Z,0
2017-09-29T02:41:09.543Z,0
2017-09-29T02:42:19.546Z,0
2017-09-29T02:43:29.566Z,0
2017-09-29T02:44:39.911Z,0
2017-09-29T02:45:50.246Z,0
2017-09-29T02:47:00.627Z,0
2017-09-29T02:48:10.687Z,0
2017-09-29T02:49:20.705Z,0
2017-09-29T02:50:30.736Z,0
2017-09-29T02:51:40.761Z,0
2017-09-29T02:52:51.112Z,0
2017-09-29T02:54:01.443Z,0
2017-09-29T02:55:11.839Z,0
2017-09-29T02:56:22.188Z,0
2017-09-29T02:57:32.522Z,0
2017-09-29T02:58:42.852Z,0
2017-09-29T02:59:53.182Z,0
2017-09-29T03:01:03.519Z,0
2017-09-29T03:02:13.546Z,0
2017-09-29T03:34:18.883Z,0
2017-09-29T03:35:29.214Z,0
2017-09-29T03:36:39.542Z,0
2017-09-29T03:37:49.559Z,0
2017-09-29T03:38:59.255Z,0
2017-09-29T03:40:09.322Z,0
2017-09-29T03:41:19.342Z,0
2017-09-29T03:42:29.666Z,0
2017-09-29T03:43:39.371Z,0
2017-09-29T03:44:49.713Z,0
2017-09-29T03:45:59.773Z,0
2017-09-29T03:47:10.108Z,0
2017-09-29T03:48:20.115Z,0
2017-09-29T03:49:30.442Z,0
2017-09-29T03:50:40.768Z,0
2017-09-29T03:51:50.839Z,0
2017-09-29T03:53:00.844Z,0
2017-09-29T03:54:11.181Z,0
2017-09-29T03:55:21.550Z,0
2017-09-29T03:56:31.577Z,0
2017-09-29T03:57:41.974Z,0
2017-09-29T03:58:52.321Z,0
2017-09-29T04:00:02.342Z,0
2017-09-29T04:01:12.672Z,0
2017-09-29T04:02:22.692Z,0
2017-09-29T04:03:32.755Z,0
2017-09-29T04:04:42.787Z,0
2017-09-29T04:05:52.814Z,0
2017-09-29T04:07:03.162Z,0
2017-09-29T04:08:13.186Z,0
2017-09-29T04:09:23.586Z,0
2017-09-29T04:10:33.937Z,0
2017-09-29T04:11:44.283Z,0
2017-09-29T04:12:54.630Z,0
2017-09-29T04:14:04.959Z,0
2017-09-29T04:15:14.970Z,0
2017-09-29T04:16:24.680Z,0
2017-09-29T04:17:35.013Z,0
2017-09-29T04:18:45.372Z,0
2017-09-29T04:19:55.394Z,0
2017-09-29T04:21:05.780Z,0
2017-09-29T04:22:16.133Z,0
2017-09-29T04:23:26.157Z,0
2017-09-29T04:24:36.188Z,0
2017-09-29T04:25:46.532Z,0
2017-09-29T04:26:56.914Z,0
2017-09-29T04:28:07.254Z,0
2017-09-29T04:29:17.589Z,0
2017-09-29T04:30:27.919Z,0
2017-09-29T04:31:37.946Z,0
2017-09-29T04:32:47.966Z,0
2017-09-29T04:33:58.321Z,0
2017-09-29T04:35:08.670Z,0
2017-09-29T04:36:19.020Z,0
2017-09-29T04:37:29.363Z,0
2017-09-29T04:38:39.443Z,0
2017-09-29T04:39:49.819Z,0
2017-09-29T04:40:59.840Z,0
2017-09-29T04:42:09.860Z,0
2017-09-29T04:43:20.207Z,0
2017-09-29T04:44:30.589Z,0
2017-09-29T04:45:40.925Z,0
2017-09-29T04:46:50.947Z,0
2017-09-29T04:48:01.299Z,0
2017-09-29T04:49:11.638Z,5
2017-09-29T04:50:22.029Z,5
2017-09-29T04:51:32.049Z,5
2017-09-29T04:52:42.064Z,5
2017-09-29T04:53:52.398Z,5
2017-09-29T04:55:02.416Z,5
2017-09-29T04:56:12.763Z,5
2017-09-29T04:57:23.117Z,10
2017-09-29T04:58:33.463Z,10
2017-09-29T04:59:43.807Z,10
2017-09-29T05:00:54.147Z,10
2017-09-29T05:02:04.150Z,10
2017-09-29T05:03:13.872Z,15
2017-09-29T05:04:23.894Z,15
2017-09-29T05:05:33.919Z,15
2017-09-29T05:06:44.282Z,15
2017-09-29T05:07:54.040Z,15
2017-09-29T05:09:04.076Z,20
2017-09-29T05:10:14.087Z,20
2017-09-29T05:11:24.414Z,20
2017-09-29T05:12:34.160Z,25
2017-09-29T05:13:44.488Z,25
2017-09-29T05:14:54.810Z,25
2017-09-29T05:16:05.189Z,25
2017-09-29T05:17:15.538Z,30
2017-09-29T05:18:25.559Z,30
2017-09-29T05:19:35.901Z,30
2017-09-29T05:20:46.263Z,30
2017-09-29T05:21:56.610Z,35
2017-09-29T05:23:06.961Z,35
2017-09-29T05:24:17.296Z,35
2017-09-29T05:25:27.681Z,40
2017-09-29T05:26:38.021Z,40
2017-09-29T05:27:48.368Z,40
2017-09-29T05:28:58.397Z,45
2017-09-29T05:30:08.722Z,45
2017-09-29T05:31:18.803Z,45
2017-09-29T05:32:29.130Z,45
2017-09-29T05:33:39.471Z,50
2017-09-29T05:34:49.511Z,50
2017-09-29T05:35:59.530Z,50
2017-09-29T05:37:09.854Z,50
2017-09-29T05:38:19.563Z,55
2017-09-29T05:39:29.910Z,50
2017-09-29T05:40:40.244Z,50
2017-09-29T05:41:49.950Z,55
2017-09-29T05:43:00.296Z,55
2017-09-29T05:44:10.642Z,55
2017-09-29T05:45:20.980Z,60
2017-09-29T05:46:31.310Z,60
2017-09-29T05:47:41.353Z,60
2017-09-29T05:48:51.694Z,60
2017-09-29T05:50:02.053Z,65
2017-09-29T05:51:12.392Z,65
2017-09-29T05:52:22.731Z,65
2017-09-29T05:53:32.756Z,65
2017-09-29T05:54:43.109Z,70
2017-09-29T05:55:52.816Z,70
2017-09-29T05:57:02.825Z,70
2017-09-29T05:58:13.169Z,70
2017-09-29T05:59:23.502Z,75
2017-09-29T06:00:33.866Z,75
2017-09-29T06:01:43.881Z,75
2017-09-29T06:02:54.212Z,75
2017-09-29T06:04:04.567Z,80
2017-09-29T06:05:14.594Z,80
2017-09-29T06:06:24.612Z,80
2017-09-29T06:07:34.946Z,80
2017-09-29T06:08:45.272Z,80
2017-09-29T06:09:55.613Z,85
2017-09-29T06:11:05.956Z,85
2017-09-29T06:12:16.328Z,85
2017-09-29T06:13:26.664Z,85
2017-09-29T06:14:36.725Z,85
2017-09-29T06:15:46.786Z,90
2017-09-29T06:16:57.114Z,90
2017-09-29T06:18:07.136Z,90
2017-09-29T06:19:17.480Z,90
2017-09-29T06:20:27.504Z,95
2017-09-29T06:21:37.866Z,95
2017-09-29T06:22:47.900Z,95
2017-09-29T06:23:58.240Z,95
2017-09-29T06:25:08.282Z,95
2017-09-29T06:26:18.623Z,100
2017-09-29T06:27:28.964Z,100
2017-09-29T06:28:39.308Z,100
2017-09-29T06:29:49.687Z,100
2017-09-29T06:31:00.025Z,100
2017-09-29T06:32:10.367Z,105
2017-09-29T06:33:20.766Z,105
2017-09-29T06:34:30.791Z,105
2017-09-29T06:35:41.122Z,105
2017-09-29T06:36:51.157Z,105
2017-09-29T06:38:01.496Z,105
2017-09-29T06:39:11.840Z,110
2017-09-29T06:40:21.877Z,110
2017-09-29T06:41:32.221Z,110
2017-09-29T06:42:42.562Z,110
2017-09-29T06:43:52.909Z,110
2017-09-29T06:45:03.328Z,115
2017-09-29T06:46:13.693Z,115
2017-09-29T06:47:24.022Z,115
2017-09-29T06:48:34.355Z,115
2017-09-29T06:49:44.700Z,115
2017-09-29T06:50:54.784Z,115
2017-09-29T06:52:05.112Z,115
2017-09-29T06:53:15.161Z,115
2017-09-29T06:54:25.492Z,115
2017-09-29T06:55:35.824Z,115
2017-09-29T06:56:45.907Z,115
2017-09-29T06:57:55.942Z,120
2017-09-29T06:59:06.297Z,120
2017-09-29T07:00:16.316Z,125
2017-09-29T07:01:26.338Z,120
2017-09-29T07:02:36.358Z,120
2017-09-29T07:03:46.414Z,125
2017-09-29T07:04:57.358Z,125
2017-09-29T07:06:07.767Z,125
2017-09-29T07:07:18.105Z,125
2017-09-29T07:08:28.153Z,125
2017-09-29T07:09:38.487Z,125
2017-09-29T07:10:48.840Z,125
2017-09-29T07:11:58.870Z,130
2017-09-29T07:13:09.201Z,130
2017-09-29T07:14:19.600Z,130
2017-09-29T07:15:29.948Z,130
2017-09-29T07:16:39.971Z,130
2017-09-29T07:17:50.311Z,135
2017-09-29T07:19:00.660Z,135
2017-09-29T07:20:11.059Z,135
2017-09-29T07:21:21.382Z,135
2017-09-29T07:22:31.077Z,135
2017-09-29T07:23:41.415Z,135
2017-09-29T07:24:51.761Z,135
2017-09-29T07:26:01.796Z,140
2017-09-29T07:27:12.135Z,140
2017-09-29T07:28:22.483Z,140
2017-09-29T07:29:32.826Z,140
2017-09-29T07:30:42.850Z,140
2017-09-29T07:31:53.223Z,140
2017-09-29T07:33:03.247Z,140
2017-09-29T07:34:13.619Z,145
2017-09-29T07:35:23.967Z,145
2017-09-29T07:36:34.308Z,145
2017-09-29T07:37:44.693Z,145
2017-09-29T07:38:54.723Z,145
2017-09-29T07:40:05.055Z,145
2017-09-29T07:41:15.437Z,150
2017-09-29T07:42:25.479Z,150
2017-09-29T07:43:35.505Z,150
2017-09-29T07:44:45.847Z,150
2017-09-29T07:45:57.647Z,150
2017-09-29T07:47:08.077Z,150
2017-09-29T07:48:19.816Z,150
2017-09-29T07:49:30.271Z,155
2017-09-29T07:50:40.300Z,155
2017-09-29T07:51:50.646Z,155
2017-09-29T07:53:00.664Z,155
2017-09-29T07:54:10.712Z,155
2017-09-29T07:55:21.101Z,155
2017-09-29T07:56:31.462Z,155
2017-09-29T07:57:42.116Z,155
2017-09-29T07:58:52.449Z,160
2017-09-29T08:00:02.805Z,160
2017-09-29T08:01:12.879Z,160
2017-09-29T08:02:22.902Z,160
2017-09-29T08:03:33.243Z,160
2017-09-29T08:04:43.256Z,160
2017-09-29T08:05:53.592Z,160
2017-09-29T08:07:03.980Z,160
2017-09-29T08:08:14.320Z,160
2017-09-29T08:09:24.650Z,160
2017-09-29T08:10:34.981Z,160
2017-09-29T08:11:45.024Z,160
2017-09-29T08:12:55.426Z,160
2017-09-29T08:14:05.794Z,160
2017-09-29T08:15:15.826Z,160
2017-09-29T08:16:26.174Z,160
2017-09-29T08:17:36.520Z,160
2017-09-29T08:18:46.862Z,160
2017-09-29T08:19:56.898Z,165
2017-09-29T08:21:07.246Z,165
2017-09-29T08:22:17.594Z,165
2017-09-29T08:23:27.931Z,165
2017-09-29T08:24:38.330Z,165
2017-09-29T08:25:48.668Z,170
2017-09-29T08:26:59.011Z,170
2017-09-29T08:28:09.361Z,170
2017-09-29T08:29:19.388Z,170
2017-09-29T08:30:29.779Z,170
2017-09-29T08:31:39.800Z,170
2017-09-29T08:32:50.160Z,170
2017-09-29T08:34:00.525Z,170
2017-09-29T08:35:10.559Z,170
2017-09-29T08:36:20.679Z,170
2017-09-29T08:37:31.021Z,175
2017-09-29T08:38:41.076Z,175
2017-09-29T08:39:51.413Z,175
2017-09-29T08:41:01.439Z,175
2017-09-29T08:42:11.827Z,175
2017-09-29T08:43:22.164Z,175
2017-09-29T08:44:32.499Z,175
2017-09-29T08:45:42.853Z,175
2017-09-29T08:46:52.565Z,175
2017-09-29T08:48:02.920Z,180
2017-09-29T08:49:13.282Z,180
2017-09-29T08:50:23.311Z,180
2017-09-29T08:51:33.715Z,180
2017-09-29T08:52:44.068Z,180
2017-09-29T08:53:54.459Z,180
2017-09-29T08:55:04.806Z,180
2017-09-29T08:56:15.162Z,180
2017-09-29T08:57:25.504Z,180
2017-09-29T08:58:35.866Z,180
2017-09-29T08:59:46.145Z,185
2017-09-29T09:00:56.542Z,185
2017-09-29T09:02:06.911Z,185
2017-09-29T09:03:16.937Z,185
2017-09-29T09:04:27.296Z,185
2017-09-29T09:05:37.692Z,185
2017-09-29T09:06:47.724Z,185
2017-09-29T09:07:58.356Z,185
2017-09-29T09:09:08.712Z,185
2017-09-29T09:10:19.074Z,190
2017-09-29T09:11:29.494Z,190
2017-09-29T09:12:39.532Z,195
2017-09-29T09:13:49.892Z,190
2017-09-29T09:15:00.238Z,190
2017-09-29T09:16:10.578Z,190
2017-09-29T09:17:20.979Z,190
2017-09-29T09:18:31.326Z,195
2017-09-29T09:19:41.379Z,190
2017-09-29T09:20:51.736Z,190
2017-09-29T09:22:02.096Z,190
2017-09-29T09:23:12.526Z,195
2017-09-29T09:24:22.876Z,195
2017-09-29T09:25:33.227Z,195
2017-09-29T09:26:43.565Z,195
2017-09-29T09:27:53.952Z,195
2017-09-29T09:29:04.307Z,195
2017-09-29T09:30:14.327Z,195
2017-09-29T09:31:24.682Z,195
2017-09-29T09:32:35.024Z,195
2017-09-29T09:33:45.379Z,195
2017-09-29T09:34:55.728Z,195
2017-09-29T09:36:06.073Z,195
2017-09-29T09:37:16.420Z,200
2017-09-29T09:38:26.821Z,200
2017-09-29T09:39:37.164Z,200
2017-09-29T09:40:47.518Z,200
2017-09-29T09:41:57.862Z,200
2017-09-29T09:43:07.270Z,200
2017-09-29T09:44:16.974Z,200
2017-09-29T09:45:27.353Z,200
2017-09-29T09:46:37.389Z,200
2017-09-29T09:47:47.106Z,200
2017-09-29T09:48:57.134Z,200
2017-09-29T09:50:07.538Z,200
2017-09-29T09:51:17.563Z,200
2017-09-29T09:52:27.928Z,205
2017-09-29T09:53:38.265Z,205
2017-09-29T09:54:48.616Z,205
2017-09-29T09:55:58.645Z,205
2017-09-29T09:57:21.730Z,205
2017-09-29T09:58:32.074Z,200
2017-09-29T10:23:05.214Z,205
2017-09-29T10:24:15.918Z,205
2017-09-29T10:25:27.952Z,205
2017-09-29T10:26:38.307Z,205
2017-09-29T10:27:49.641Z,205
2017-09-29T10:29:01.145Z,210
2017-09-29T10:30:11.492Z,210
2017-09-29T10:31:21.837Z,210
2017-09-29T10:32:32.818Z,210
2017-09-29T10:33:46.598Z,210
2017-09-29T10:51:50.081Z,210
2017-09-29T10:53:00.425Z,210
2017-09-29T10:56:49.716Z,210
2017-09-29T10:58:02.309Z,210
2017-09-29T10:59:13.165Z,210
2017-09-29T11:00:23.559Z,210
2017-09-29T11:01:33.584Z,210
2017-09-29T11:02:43.960Z,215
2017-09-29T11:03:54.297Z,215
2017-09-29T11:05:04.008Z,215
2017-09-29T11:06:14.039Z,215
2017-09-29T11:07:24.379Z,215
2017-09-29T11:08:35.764Z,215
2017-09-29T11:09:46.101Z,210
2017-09-29T11:10:56.118Z,210
2017-09-29T11:12:08.528Z,210
2017-09-29T11:13:19.471Z,210
2017-09-29T11:14:29.862Z,210
2017-09-29T11:15:40.393Z,210
2017-09-29T11:16:50.716Z,210
2017-09-29T11:18:01.980Z,215
2017-09-29T11:19:12.333Z,210
2017-09-29T11:20:22.423Z,210
2017-09-29T11:21:32.779Z,210
2017-09-29T11:22:44.246Z,215
2017-09-29T11:23:54.617Z,210
2017-09-29T11:25:04.649Z,210
2017-09-29T11:26:15.000Z,210
2017-09-29T11:27:25.344Z,210
2017-09-29T11:28:36.223Z,210
2017-09-29T11:29:46.260Z,220
2017-09-29T11:30:57.703Z,215
2017-09-29T11:32:08.051Z,215
2017-09-29T11:33:18.411Z,210
2017-09-29T11:34:28.432Z,210
2017-09-29T11:35:38.469Z,220
2017-09-29T11:36:48.497Z,215
2017-09-29T11:37:58.567Z,210
2017-09-29T11:39:08.604Z,215
2017-09-29T11:40:18.944Z,215
2017-09-29T11:41:29.285Z,215
2017-09-29T11:42:39.340Z,220
2017-09-29T11:43:49.666Z,215
2017-09-29T11:44:59.373Z,215
2017-09-29T11:46:09.757Z,220
2017-09-29T11:47:19.783Z,220
2017-09-29T11:48:30.133Z,215
2017-09-29T11:49:40.490Z,220
2017-09-29T11:50:50.846Z,215
2017-09-29T11:52:01.207Z,210
2017-09-29T11:53:11.558Z,215
2017-09-29T11:54:21.902Z,215
2017-09-29T11:55:31.942Z,220
2017-09-29T11:56:42.294Z,220
2017-09-29T11:57:52.658Z,220
2017-09-29T11:59:03.024Z,225
2017-09-29T12:00:13.075Z,225
2017-09-29T12:01:23.459Z,225
2017-09-29T12:02:34.116Z,220
2017-09-29T12:03:44.549Z,220
2017-09-29T12:04:55.059Z,225
2017-09-29T12:06:05.416Z,225
2017-09-29T12:07:15.817Z,220
2017-09-29T12:08:26.173Z,220
2017-09-29T12:09:36.776Z,220
2017-09-29T12:10:46.813Z,220
2017-09-29T12:11:57.160Z,220
2017-09-29T12:13:07.698Z,225
2017-09-29T12:14:19.161Z,225
2017-09-29T12:15:29.512Z,220
2017-09-29T12:16:39.881Z,220
2017-09-29T12:17:50.261Z,220
2017-09-29T12:19:00.658Z,225
2017-09-29T12:20:11.766Z,215
2017-09-29T12:21:26.095Z,210
2017-09-29T12:22:39.958Z,185
2017-09-29T12:23:54.182Z,215
2017-09-29T12:25:09.057Z,215
2017-09-29T12:26:20.057Z,210
2017-09-29T12:27:30.426Z,215
2017-09-29T12:28:40.780Z,215
2017-09-29T12:29:51.142Z,220
2017-09-29T12:31:01.194Z,225
2017-09-29T12:32:10.901Z,230
2017-09-29T12:33:21.268Z,220
2017-09-29T12:34:31.668Z,220
2017-09-29T12:35:41.768Z,225
2017-09-29T12:36:51.830Z,215
2017-09-29T12:38:01.890Z,215
2017-09-29T12:39:11.937Z,210
2017-09-29T12:40:22.293Z,215
2017-09-29T12:41:32.791Z,215
2017-09-29T12:42:42.809Z,210
2017-09-29T12:43:53.160Z,220
2017-09-29T12:45:03.511Z,215
2017-09-29T12:46:13.547Z,210
2017-09-29T12:47:23.929Z,195
2017-09-29T12:48:34.305Z,210
2017-09-29T12:49:45.513Z,175
2017-09-29T12:50:55.557Z,205
2017-09-29T12:52:05.925Z,205
2017-09-29T12:53:16.004Z,205
2017-09-29T12:54:26.022Z,200
2017-09-29T12:55:36.055Z,200
2017-09-29T12:56:48.268Z,195
2017-09-29T12:57:58.633Z,200
2017-09-29T12:59:09.039Z,205
2017-09-29T13:00:19.395Z,205
2017-09-29T13:01:29.743Z,205
2017-09-29T13:02:40.107Z,205
2017-09-29T13:03:50.453Z,205
2017-09-29T13:05:00.870Z,205
2017-09-29T13:06:11.248Z,205
2017-09-29T13:07:21.318Z,200
2017-09-29T13:08:31.653Z,200
2017-09-29T13:09:42.009Z,200
2017-09-29T13:10:52.408Z,195
2017-09-29T13:12:02.778Z,190
2017-09-29T13:13:12.813Z,195
2017-09-29T13:14:23.168Z,190
2017-09-29T13:15:33.531Z,195
2017-09-29T13:16:43.680Z,195
2017-09-29T13:17:54.035Z,200
2017-09-29T13:19:04.414Z,195
2017-09-29T13:20:14.458Z,195
2017-09-29T13:21:24.805Z,200
2017-09-29T13:22:34.564Z,200
2017-09-29T13:23:44.906Z,205
2017-09-29T13:24:54.964Z,205
2017-09-29T13:26:05.302Z,210
2017-09-29T13:27:15.663Z,205
2017-09-29T13:28:26.017Z,195
2017-09-29T13:29:36.381Z,130
2017-09-29T13:30:46.730Z,115
2017-09-29T13:31:57.118Z,185
2017-09-29T13:33:07.482Z,180
2017-09-29T13:34:17.846Z,165
2017-09-29T13:35:27.599Z,135
2017-09-29T13:36:37.985Z,160
2017-09-29T13:37:48.358Z,170
2017-09-29T13:39:10.510Z,175
2017-09-29T13:40:20.873Z,170
2017-09-29T13:41:31.280Z,170
2017-09-29T13:42:41.636Z,165
2017-09-29T13:43:52.544Z,170
2017-09-29T13:45:02.991Z,170
2017-09-29T13:46:13.359Z,175
2017-09-29T13:47:25.077Z,170
2017-09-29T13:48:35.448Z,170
2017-09-29T13:49:45.497Z,165
2017-09-29T13:50:55.869Z,165
2017-09-29T13:52:06.234Z,165
2017-09-29T13:53:16.590Z,165
2017-09-29T13:54:27.033Z,165
2017-09-29T13:55:37.379Z,165
2017-09-29T13:56:47.721Z,165
2017-09-29T13:57:57.446Z,165
2017-09-29T13:59:07.779Z,170
2017-09-29T14:00:17.839Z,150
2017-09-29T14:01:27.878Z,165
2017-09-29T14:02:38.250Z,170
2017-09-29T14:03:48.296Z,165
2017-09-29T14:04:58.642Z,160
2017-09-29T14:06:09.615Z,160
2017-09-29T14:07:19.680Z,155
2017-09-29T14:08:30.032Z,150
2017-09-29T14:09:40.394Z,150
2017-09-29T14:10:50.752Z,150
2017-09-29T14:12:00.779Z,155
2017-09-29T14:13:11.185Z,155
2017-09-29T14:14:21.269Z,155
2017-09-29T14:15:31.625Z,145
2017-09-29T14:16:41.021Z,145
2017-09-29T14:17:51.384Z,145
2017-09-29T14:19:01.816Z,145
2017-09-29T14:20:11.860Z,145
2017-09-29T14:21:21.925Z,145
2017-09-29T14:22:32.281Z,140
2017-09-29T14:23:42.656Z,140
2017-09-29T14:24:52.741Z,135
2017-09-29T14:26:03.087Z,135
2017-09-29T14:27:13.229Z,130
2017-09-29T14:28:23.280Z,135
2017-09-29T14:29:33.676Z,135
2017-09-29T14:30:44.089Z,135
2017-09-29T14:31:54.155Z,135
2017-09-29T14:33:04.507Z,130
2017-09-29T14:34:14.857Z,130
2017-09-29T14:35:24.903Z,130
2017-09-29T14:36:36.581Z,130
2017-09-29T14:37:46.646Z,130
2017-09-29T14:38:56.400Z,130
2017-09-29T14:40:06.747Z,130
2017-09-29T14:41:17.065Z,125
2017-09-29T14:42:27.186Z,125
2017-09-29T14:43:37.554Z,120
2017-09-29T14:44:47.926Z,120
2017-09-29T14:45:58.280Z,120
2017-09-29T14:47:08.634Z,120
2017-09-29T14:48:18.990Z,120
2017-09-29T14:49:29.361Z,120
2017-09-29T14:50:39.948Z,110
2017-09-29T14:51:50.675Z,110
2017-09-29T14:53:01.472Z,110
2017-09-29T14:54:11.643Z,110
2017-09-29T14:55:22.086Z,110
2017-09-29T14:56:32.473Z,110
2017-09-29T14:57:42.854Z,110
2017-09-29T14:58:53.214Z,105
2017-09-29T15:00:03.607Z,110
2017-09-29T15:01:13.971Z,100
2017-09-29T15:02:24.010Z,95
2017-09-29T15:03:34.363Z,95
2017-09-29T15:04:44.758Z,95
2017-09-29T15:05:55.111Z,95
2017-09-29T15:07:05.473Z,95
2017-09-29T15:08:15.830Z,95
2017-09-29T15:09:26.174Z,90
2017-09-29T15:10:36.591Z,90
2017-09-29T15:11:46.962Z,75
2017-09-29T15:12:57.333Z,85
2017-09-29T15:14:07.371Z,85
2017-09-29T15:15:17.732Z,85
2017-09-29T15:16:28.136Z,85
2017-09-29T15:17:38.406Z,85
2017-09-29T15:18:48.769Z,85
2017-09-29T15:19:59.108Z,85
2017-09-29T15:21:09.466Z,80
2017-09-29T15:22:20.883Z,80
2017-09-29T15:23:31.261Z,80
2017-09-29T15:24:41.617Z,80
2017-09-29T15:25:51.972Z,75
2017-09-29T15:27:02.320Z,75
2017-09-29T15:28:12.727Z,75
2017-09-29T15:29:22.762Z,70
2017-09-29T15:30:33.116Z,70
2017-09-29T15:31:43.459Z,75
2017-09-29T15:32:53.525Z,70
2017-09-29T15:34:03.935Z,65
2017-09-29T15:35:13.648Z,65
2017-09-29T15:36:24.023Z,65
2017-09-29T15:37:34.386Z,60
2017-09-29T15:38:44.442Z,60
2017-09-29T15:39:54.826Z,60
2017-09-29T15:41:05.199Z,55
2017-09-29T15:42:15.262Z,55
2017-09-29T15:43:25.662Z,55
2017-09-29T15:44:36.010Z,50
2017-09-29T15:45:46.369Z,50
2017-09-29T15:46:56.183Z,50
2017-09-29T15:48:06.225Z,50
2017-09-29T15:49:16.612Z,50
2017-09-29T15:50:26.937Z,50
2017-09-29T15:51:37.336Z,50
2017-09-29T15:52:47.910Z,45
2017-09-29T15:53:58.257Z,45
2017-09-29T15:55:08.284Z,45
2017-09-29T15:56:18.362Z,40
2017-09-29T15:57:28.748Z,40
2017-09-29T15:58:39.119Z,40
2017-09-29T15:59:48.852Z,40
2017-09-29T16:00:58.881Z,35
2017-09-29T16:02:09.237Z,35
2017-09-29T16:03:19.593Z,35
2017-09-29T16:04:29.937Z,30
2017-09-29T16:05:40.292Z,30
2017-09-29T16:06:50.655Z,30
2017-09-29T16:08:00.867Z,30
2017-09-29T16:09:10.285Z,25
2017-09-29T16:10:20.625Z,25
2017-09-29T16:11:30.997Z,25
2017-09-29T16:12:41.364Z,25
2017-09-29T16:13:51.409Z,20
2017-09-29T16:15:01.509Z,20
2017-09-29T16:16:11.879Z,20
2017-09-29T16:17:22.254Z,15
2017-09-29T16:18:32.610Z,15
2017-09-29T16:19:42.957Z,15
2017-09-29T16:20:53.011Z,15
2017-09-29T16:22:02.719Z,10
2017-09-29T16:23:12.413Z,10
2017-09-29T16:24:22.927Z,10
2017-09-29T16:25:33.232Z,10
2017-09-29T16:26:43.360Z,10
2017-09-29T16:27:53.745Z,5
2017-09-29T16:29:04.115Z,5
2017-09-29T16:30:14.463Z,5
2017-09-29T16:31:24.853Z,5
2017-09-29T16:32:35.260Z,5
2017-09-29T16:33:45.610Z,5
2017-09-29T16:34:55.676Z,5
2017-09-29T16:36:06.048Z,5
2017-09-29T16:37:17.036Z,0
2017-09-29T16:38:27.382Z,0
2017-09-29T16:39:37.444Z,0
2017-09-29T16:40:47.485Z,0
2017-09-29T16:41:57.868Z,0
2017-09-29T16:43:07.922Z,0
2017-09-29T16:44:17.378Z,0
2017-09-29T16:45:27.740Z,0
2017-09-29T16:46:37.478Z,0
2017-09-29T16:47:47.199Z,0
2017-09-29T16:48:58.915Z,0
2017-09-29T16:50:09.057Z,0
2017-09-29T16:51:18.819Z,0
2017-09-29T16:52:28.861Z,0
2017-09-29T16:53:39.245Z,0
2017-09-29T16:54:49.270Z,0
2017-09-29T16:55:59.667Z,0
2017-09-29T16:57:09.689Z,0
2017-09-29T16:58:20.033Z,0
2017-09-29T16:59:30.051Z,0
2017-09-29T17:00:39.784Z,0
2017-09-29T17:01:50.208Z,0
2017-09-29T17:03:00.585Z,0
2017-09-29T17:04:10.625Z,0
2017-09-29T17:05:21.047Z,0
2017-09-29T17:06:31.404Z,0
2017-09-29T17:07:41.814Z,0
2017-09-29T17:08:51.857Z,0
2017-09-29T17:10:02.212Z,0
2017-09-29T17:11:11.610Z,0
2017-09-29T17:12:21.983Z,0
2017-09-29T17:13:32.347Z,0
2017-09-29T17:14:42.691Z,0
2017-09-29T17:15:53.062Z,0
2017-09-29T17:17:03.098Z,0
2017-09-29T17:18:13.482Z,0
2017-09-29T17:19:23.883Z,0
2017-09-29T17:20:34.243Z,0
2017-09-29T17:21:43.940Z,0
2017-09-29T17:22:53.670Z,0
2017-09-29T17:24:04.046Z,0
2017-09-29T17:25:14.089Z,0
2017-09-29T17:26:24.150Z,0
2017-09-29T17:27:34.506Z,0
2017-09-29T17:28:44.222Z,0
2017-09-29T17:29:54.278Z,0
2017-09-29T17:31:04.052Z,0
2017-09-29T17:32:14.090Z,0
2017-09-29T17:33:24.135Z,0
2017-09-29T17:34:34.499Z,0
2017-09-29T17:35:43.883Z,0
2017-09-29T17:36:53.648Z,0
2017-09-29T17:38:03.682Z,0
2017-09-29T17:39:13.818Z,0
2017-09-29T17:40:23.841Z,0
2017-09-29T17:41:33.868Z,0
2017-09-29T17:42:43.962Z,0
2017-09-29T17:43:54.020Z,0
2017-09-29T17:45:04.060Z,0
2017-09-29T17:46:13.781Z,0
2017-09-29T17:47:23.808Z,0
2017-09-29T17:48:33.898Z,0
2017-09-29T17:49:43.941Z,0
2017-09-29T17:50:53.965Z,0
2017-09-29T17:52:04.018Z,0